• Join FlightAware (Why Join?)
  • Login
  • US Flag 
05:54AM EDT


 

Airport Tracker/Info


-or-


 

Live Flight TrackerFlight Track Log ✈ DAL92 ✈ 12-Jun-2013 ✈ KJFK - EIDW / DUB

Flight Track Log - Related Links

Times and Time Zones

All times are in EDT time to prevent confusion due to time zone crossing. See the DAL92 flight status page for this flight to view local times or setup timezone preferences in your user account.

Time Position Orientation Groundspeed Altitude Reporting Facility
EDT Latitude Longitude Course Direction KTS MPH feet Rate Location/Type
10:25PM 40.6167 -73.8833 37° Northeast 233 268 2,600  Level New York TRACON
10:26PM 40.5500 -73.8333 150° Southeast 288 331 5,200 2,760 Climbing New York TRACON
10:27PM 40.9212 -73.5122 37° Northeast  Level FlightAware Approximate
10:27PM 40.5500 -73.7167 90° East 295 339 8,500  Level New York TRACON
10:28PM 41.0296 -73.4178 30° Northeast  Level FlightAware Approximate
10:28PM 40.6167 -73.6500 37° Northeast 310 357 10,900  Level New York TRACON
10:29PM 41.1398 -73.3268 37° Northeast  Level FlightAware Approximate
10:29PM 40.6833 -73.5667 43° Northeast 370 426 11,000  Level New York TRACON
10:30PM 41.2471 -73.2362 37° Northeast  Level FlightAware Approximate
10:31PM 40.8203 -73.4467 34° Northeast 392 451 12,600  Level Boston Center
10:32PM 40.9147 -73.3931 23° Northeast 377 434 15,300 2,340 Climbing Boston Center
10:33PM 41.0006 -73.3478 22° Northeast 364 419 17,300 2,100 Climbing Boston Center
10:34PM 41.1178 -73.2831 23° Northeast 382 440 19,600 2,220 Climbing Boston Center
10:35PM 41.2244 -73.2267 22° Northeast 398 458 21,800 1,800 Climbing Boston Center
10:36PM 41.3228 -73.1697 24° Northeast 412 474 23,300 1,500 Climbing Boston Center
10:37PM 41.4211 -73.0658 38° Northeast 430 495 24,900 1,560 Climbing Boston Center
10:38PM 41.4825 -72.9000 64° Northeast 451 519 26,500 1,800 Climbing Boston Center
10:39PM 41.5497 -72.7203 63° Northeast 472 543 28,500 2,040 Climbing Boston Center
10:40PM 41.6147 -72.5567 62° Northeast 478 550 30,600 2,100 Climbing Boston Center
10:41PM 41.6750 -72.3983 63° Northeast 483 556 32,800 1,200 Climbing Boston Center
10:42PM 41.7353 -72.2453 62° Northeast 469 540 33,000 60 Climbing Boston Center
10:43PM 41.7956 -72.0919 62° Northeast 469 540 33,000  Level Boston Center
10:44PM 41.8553 -71.9328 63° Northeast 469 540 33,000  Level Boston Center
10:45PM 41.9169 -71.7733 62° Northeast 469 540 33,000  Level Boston Center
10:46PM 41.9742 -71.6136 64° Northeast 469 540 33,000  Level Boston Center
10:47PM 42.0336 -71.4731 60° Northeast 469 540 33,000  Level Boston Center
10:48PM 42.0986 -71.2958 64° Northeast 474 545 33,000  Level Boston Center
10:49PM 42.1575 -71.1378 63° Northeast 468 539 33,000 -60 Level Boston Center
10:50PM 42.2158 -70.9797 63° Northeast 468 539 32,900  Descending Boston Center
10:51PM 42.2661 -70.8297 66° East 468 539 33,000  Climbing Boston Center
10:52PM 42.3219 -70.6711 64° Northeast 474 545 33,000  Level Boston Center
10:53PM 42.3797 -70.5092 64° Northeast 469 540 33,000  Level Boston Center
10:54PM 42.4394 -70.3497 63° Northeast 469 540 33,000  Level Boston Center
10:55PM 42.4969 -70.1872 64° Northeast 469 540 33,000  Level Boston Center
10:56PM 42.5581 -70.0217 63° Northeast 469 540 33,000  Level Boston Center
10:57PM 42.6128 -69.8531 66° East 469 540 33,000  Level Boston Center
10:58PM 42.6736 -69.6894 63° Northeast 469 540 33,000  Level Boston Center
10:59PM 42.7297 -69.5231 65° Northeast 469 540 33,000  Level Boston Center
11:00PM 42.7936 -69.3361 65° Northeast 480 552 33,000  Level Boston Center
11:00PM 42.7833 -69.2833 105° East 490 564 33,000  Level Moncton Center
11:01PM 42.8500 -69.1167 61° Northeast 490 564 33,000  Level Moncton Center
11:02PM 42.9092 -69.0014 55° Northeast 480 552 33,000  Level Boston Center
11:03PM 42.9644 -68.8336 66° East 480 552 33,000  Level Boston Center
11:03PM 42.9667 -68.8000 85° East 480 552 33,000  Level Moncton Center
11:04PM 43.0167 -68.6167 69° East 480 552 33,000  Level Moncton Center
11:05PM 43.0711 -68.5258 51° Northeast 467 537 33,000  Level Boston Center
11:06PM 43.1236 -68.3631 66° East 467 537 33,000  Level Boston Center
11:07PM 43.1800 -68.1969 65° Northeast 473 544 33,000  Level Boston Center
11:08PM 43.2344 -68.0336 65° Northeast 473 544 33,000  Level Boston Center
11:09PM 43.2883 -67.8697 66° East 473 544 33,000  Level Boston Center
11:09PM 43.3000 -67.8000 77° East 480 552 33,000  Level Moncton Center
11:10PM 43.3500 -67.6333 68° East 480 552 33,000  Level Moncton Center
11:11PM 43.3953 -67.5300 59° Northeast 473 544 33,000  Level Boston Center
11:12PM 43.4486 -67.3656 66° East 473 544 33,000  Level Boston Center
11:13PM 43.5053 -67.1917 66° East 473 544 33,000  Level Boston Center
11:13PM 43.5167 -67.1000 80° East 480 552 33,000  Level Moncton Center
11:14PM 43.5667 -66.9333 67° East 480 552 33,000  Level Moncton Center
11:15PM 43.6500 -66.7500 58° Northeast 480 552 33,000  Level Moncton Center
11:16PM 43.7000 -66.6000 65° Northeast 480 552 33,000  Level Moncton Center
11:17PM 43.7500 -66.4333 67° East 480 552 33,000  Level Moncton Center
11:18PM 43.8167 -66.2667 61° Northeast 480 552 33,000  Level Moncton Center
11:19PM 43.8667 -66.1167 65° Northeast 480 552 33,000  Level Moncton Center
11:20PM 43.9333 -65.9333 63° Northeast 480 552 33,000  Level Moncton Center
11:21PM 43.9833 -65.7667 67° East 480 552 33,000  Level Moncton Center
11:22PM 44.0500 -65.6000 61° Northeast 470 541 33,000  Level Moncton Center
11:23PM 44.1000 -65.4500 65° Northeast 470 541 33,000  Level Moncton Center
11:24PM 44.1500 -65.2667 69° East 470 541 33,000  Level Moncton Center
11:25PM 44.2000 -65.1167 65° Northeast 470 541 33,000  Level Moncton Center
11:26PM 44.2667 -64.9333 63° Northeast 470 541 33,000  Level Moncton Center
11:27PM 44.3167 -64.7667 67° East 470 541 33,000  Level Moncton Center
11:28PM 44.3667 -64.6000 67° East 470 541 33,000  Level Moncton Center
11:29PM 44.4333 -64.4500 58° Northeast 470 541 33,000  Level Moncton Center
11:30PM 44.4833 -64.2833 67° East 470 541 33,000  Level Moncton Center
11:31PM 44.5333 -64.1167 67° East 470 541 33,000  Level Moncton Center
11:32PM 44.5833 -63.9500 67° East 470 541 33,000  Level Moncton Center
11:33PM 44.6333 -63.7833 67° East 470 541 33,000  Level Moncton Center
11:34PM 44.7000 -63.6167 61° Northeast 470 541 33,000  Level Moncton Center
11:35PM 44.7500 -63.4500 67° East 470 541 33,000  Level Moncton Center
11:36PM 44.8000 -63.2667 69° East 470 541 33,000  Level Moncton Center
11:37PM 44.8667 -63.1000 61° Northeast 470 541 33,000  Level Moncton Center
11:38PM 44.9167 -62.9333 67° East 470 541 33,000  Level Moncton Center
11:39PM 44.9667 -62.7667 67° East 470 541 33,000  Level Moncton Center
11:40PM 45.0333 -62.6000 60° Northeast 470 541 33,000  Level Moncton Center
11:41PM 45.0667 -62.4333 74° East 460 529 33,000  Level Moncton Center
11:42PM 45.1167 -62.2667 67° East 460 529 33,000  Level Moncton Center
11:43PM 45.1667 -62.1000 67° East 460 529 33,000  Level Moncton Center
11:44PM 45.2167 -61.9333 67° East 460 529 33,000  Level Moncton Center
11:45PM 45.2833 -61.7500 63° Northeast 460 529 33,000  Level Moncton Center
11:46PM 45.3167 -61.5833 74° East 470 541 33,000  Level Moncton Center
11:47PM 45.3667 -61.4167 67° East 470 541 33,000  Level Moncton Center
11:48PM 45.4167 -61.2500 67° East 470 541 33,000  Level Moncton Center
11:49PM 45.4667 -61.0500 70° East 470 541 33,000  Level Moncton Center
11:50PM 45.5167 -60.8833 67° East 470 541 33,000  Level Moncton Center
11:51PM 45.5667 -60.7167 67° East 470 541 33,000  Level Moncton Center
11:52PM 45.6167 -60.5500 67° East 470 541 33,000  Level Moncton Center
11:53PM 45.6667 -60.3667 69° East 470 541 33,000  Level Moncton Center
11:54PM 45.7167 -60.2000 67° East 470 541 33,000  Level Moncton Center
11:55PM 45.7500 -60.0333 74° East 470 541 33,000  Level Moncton Center
11:56PM 45.8167 -59.8667 60° Northeast 470 541 33,000  Level Moncton Center
11:57PM 45.8667 -59.6833 69° East 470 541 33,000  Level Moncton Center
11:58PM 45.9000 -59.5167 74° East 470 541 33,000  Level Moncton Center
11:59PM 45.9667 -59.3167 64° Northeast 470 541 33,000  Level Moncton Center
12:00AM 46.0000 -59.1667 72° East 470 541 33,000  Level Moncton Center
12:01AM 46.0500 -58.9667 70° East 470 541 33,000  Level Moncton Center
12:02AM 46.0833 -58.8000 74° East 470 541 33,000  Level Moncton Center
12:03AM 46.1500 -58.6500 57° Northeast 470 541 33,000  Level Moncton Center
12:04AM 46.1833 -58.4500 76° East 470 541 33,000  Level Moncton Center
12:05AM 46.2333 -58.2667 68° East 470 541 33,000  Level Moncton Center
12:06AM 46.2667 -58.1000 74° East 470 541 33,000  Level Moncton Center
12:07AM 46.3333 -57.9167 62° Northeast 470 541 33,000  Level Moncton Center
12:08AM 46.3667 -57.7500 74° East 470 541 33,000  Level Moncton Center
12:09AM 46.4000 -57.5667 75° East 470 541 33,000  Level Moncton Center
12:10AM 46.4667 -57.3667 64° Northeast 480 552 33,000  Level Moncton Center
12:11AM 46.5000 -57.2000 74° East 480 552 33,000  Level Moncton Center
12:12AM 46.5333 -57.0167 75° East 490 564 33,000 180 Level Moncton Center
12:13AM 46.5833 -56.8167 70° East 480 552 33,400 480 Climbing Moncton Center
12:14AM 46.6333 -56.6333 68° East 480 552 34,000 300 Climbing Moncton Center
12:15AM 46.6833 -56.4333 70° East 490 564 34,000  Level Moncton Center
12:16AM 46.7167 -56.2667 74° East 490 564 34,000  Level Moncton Center
12:17AM 46.7500 -56.0833 75° East 500 575 34,000  Level Moncton Center
12:18AM 46.8167 -55.8833 64° Northeast 490 564 34,000  Level Moncton Center
12:19AM 46.8500 -55.7000 75° East 500 575 34,000  Level Moncton Center
12:20AM 46.9000 -55.5000 70° East 500 575 34,000  Level Moncton Center
12:21AM 46.9333 -55.3167 75° East 500 575 34,000  Level Moncton Center
12:22AM 46.9833 -55.1167 70° East 500 575 34,000  Level Moncton Center
12:23AM 47.0167 -54.9000 77° East 500 575 34,000  Level Moncton Center
12:24AM 47.0667 -54.7167 68° East 500 575 34,000  Level Moncton Center
12:25AM 47.1000 -54.5167 76° East 500 575 34,000  Level Moncton Center
12:26AM 47.1500 -54.3333 68° East 500 575 34,000  Level Moncton Center
12:27AM 47.1833 -54.1333 76° East 500 575 34,000  Level Moncton Center
12:28AM 47.2333 -53.9333 70° East 500 575 34,000  Level Moncton Center
12:29AM 47.2667 -53.7500 75° East 510 587 34,000  Level Moncton Center
12:30AM 47.3167 -53.5333 71° East 510 587 34,000  Level Moncton Center
12:31AM 47.3500 -53.3333 76° East 510 587 34,000  Level Moncton Center
12:32AM 47.3833 -53.1167 77° East 520 598 34,000  Level Moncton Center
12:33AM 47.4333 -52.9333 68° East 520 598 34,000  Level Moncton Center
12:34AM 47.4833 -52.7000 72° East 520 598 34,000  Level Moncton Center
12:35AM 47.5167 -52.5167 75° East 530 610 34,000  Level Moncton Center
12:35AM 47.5333 -52.4333 73° East 530 610 34,000  Level Gander Center
12:36AM 47.5667 -52.3167 67° East 530 610 34,000  Level Moncton Center
12:36AM 47.5833 -52.2000 78° East 530 610 34,000  Level Gander Center
12:37AM 47.6000 -52.0833 78° East 530 610 34,000  Level Gander Center
12:38AM 47.6333 -51.8667 77° East 530 610 34,000  Level Gander Center
12:39AM 47.6833 -51.6667 70° East 530 610 34,000  Level Gander Center
12:40AM 47.7167 -51.4500 77° East 540 621 34,000  Level Gander Center
12:41AM 47.7667 -51.2167 72° East 540 621 34,000  Level Gander Center
12:42AM 47.8000 -51.0167 76° East 540 621 34,000  Level Gander Center
12:43AM 47.8167 -50.8167 83° East 540 621 34,000  Level Gander Center
12:44AM 47.8667 -50.6000 71° East 530 610 34,000  Level Gander Center
12:45AM 47.9000 -50.4000 76° East 530 610 34,000  Level Gander Center
12:46AM 47.9500 -50.1500 73° East 520 598 34,000  Level Gander Center
12:47AM 47.9833 -49.9667 75° East 520 598 34,000  Level Gander Center
12:48AM 48.0000 -49.7500 83° East 520 598 34,000 -60 Level Gander Center
12:50AM 48.0325 -49.5334 77° East  Level FlightAware Approximate
12:57AM 48.2268 -48.1694 77° East  Level FlightAware Approximate
12:58AM 48.2532 -47.9737 78° East  Level FlightAware Approximate
12:59AM 48.2793 -47.7778 79° East  Level FlightAware Approximate
01:00AM 48.3051 -47.5817 79° East  Level FlightAware Approximate
01:01AM 48.3305 -47.3854 79° East  Level FlightAware Approximate
01:02AM 48.3556 -47.1889 79° East  Level FlightAware Approximate
01:03AM 48.3804 -46.9923 79° East  Level FlightAware Approximate
01:04AM 48.4048 -46.7954 79° East  Level FlightAware Approximate
01:05AM 48.4289 -46.5984 79° East  Level FlightAware Approximate
01:06AM 48.4526 -46.4011 80° East  Level FlightAware Approximate
01:07AM 48.4755 -46.2032 81° East  Level FlightAware Approximate
01:08AM 48.4970 -46.0052 81° East  Level FlightAware Approximate
01:09AM 48.5182 -45.8070 81° East  Level FlightAware Approximate
01:10AM 48.5390 -45.6087 81° East  Level FlightAware Approximate
01:11AM 48.5595 -45.4102 81° East  Level FlightAware Approximate
01:12AM 48.5796 -45.2116 81° East  Level FlightAware Approximate
01:13AM 48.5994 -45.0127 81° East  Level FlightAware Approximate
01:14AM 48.6189 -44.8138 82° East  Level FlightAware Approximate
01:15AM 48.6381 -44.6147 82° East  Level FlightAware Approximate
01:16AM 48.6568 -44.4154 82° East  Level FlightAware Approximate
01:17AM 48.6753 -44.2160 82° East  Level FlightAware Approximate
01:18AM 48.6934 -44.0164 82° East  Level FlightAware Approximate
01:19AM 48.7111 -43.8167 82° East  Level FlightAware Approximate
01:20AM 48.7285 -43.6169 82° East  Level FlightAware Approximate
01:21AM 48.7456 -43.4169 83° East  Level FlightAware Approximate
01:22AM 48.7623 -43.2168 83° East  Level FlightAware Approximate
01:23AM 48.7786 -43.0166 83° East  Level FlightAware Approximate
01:24AM 48.7947 -42.8162 83° East  Level FlightAware Approximate
01:25AM 48.8103 -42.6157 83° East  Level FlightAware Approximate
01:26AM 48.8265 -42.4153 83° East  Level FlightAware Approximate
01:27AM 48.8428 -42.2148 83° East  Level FlightAware Approximate
01:28AM 48.8589 -42.0141 83° East  Level FlightAware Approximate
01:29AM 48.8746 -41.8134 83° East  Level FlightAware Approximate
01:30AM 48.8899 -41.6125 83° East  Level FlightAware Approximate
01:31AM 48.9049 -41.4115 83° East  Level FlightAware Approximate
01:32AM 48.9195 -41.2104 84° East  Level FlightAware Approximate
01:33AM 48.9338 -41.0092 84° East  Level FlightAware Approximate
01:34AM 48.9477 -40.8078 84° East  Level FlightAware Approximate
01:35AM 48.9613 -40.6064 84° East  Level FlightAware Approximate
01:36AM 48.9745 -40.4048 84° East  Level FlightAware Approximate
01:37AM 48.9874 -40.2031 84° East  Level FlightAware Approximate
01:38AM 48.9999 -40.0014 85° East  Level FlightAware Approximate
01:39AM 49.0469 -39.8137 69° East  Level FlightAware Approximate
01:40AM 49.0938 -39.6258 69° East  Level FlightAware Approximate
01:41AM 49.1404 -39.4375 69° East  Level FlightAware Approximate
01:42AM 49.1868 -39.2489 69° East  Level FlightAware Approximate
01:43AM 49.2328 -39.0599 69° East  Level FlightAware Approximate
01:44AM 49.2785 -38.8706 70° East  Level FlightAware Approximate
01:45AM 49.3238 -38.6809 70° East  Level FlightAware Approximate
01:46AM 49.3689 -38.4909 70° East  Level FlightAware Approximate
01:47AM 49.4137 -38.3005 70° East  Level FlightAware Approximate
01:48AM 49.4581 -38.1098 70° East  Level FlightAware Approximate
01:49AM 49.5022 -37.9188 70° East  Level FlightAware Approximate
01:50AM 49.5461 -37.7273 71° East  Level FlightAware Approximate
01:51AM 49.5896 -37.5356 71° East  Level FlightAware Approximate
01:52AM 49.6328 -37.3435 71° East  Level FlightAware Approximate
01:53AM 49.6756 -37.1511 71° East  Level FlightAware Approximate
01:54AM 49.7182 -36.9583 71° East  Level FlightAware Approximate
01:55AM 49.7604 -36.7652 71° East  Level FlightAware Approximate
01:56AM 49.8023 -36.5718 71° East  Level FlightAware Approximate
01:57AM 49.8439 -36.3780 72° East  Level FlightAware Approximate
01:58AM 49.8852 -36.1839 72° East  Level FlightAware Approximate
01:59AM 49.9261 -35.9894 72° East  Level FlightAware Approximate
02:00AM 49.9667 -35.7947 72° East  Level FlightAware Approximate
02:01AM 50.0070 -35.5996 72° East  Level FlightAware Approximate
02:02AM 50.0469 -35.4041 72° East  Level FlightAware Approximate
02:03AM 50.0866 -35.2084 72° East  Level FlightAware Approximate
02:04AM 50.1259 -35.0123 73° East  Level FlightAware Approximate
02:05AM 50.1648 -34.8159 73° East  Level FlightAware Approximate
02:06AM 50.2035 -34.6192 73° East  Level FlightAware Approximate
02:07AM 50.2418 -34.4222 73° East  Level FlightAware Approximate
02:08AM 50.2797 -34.2249 73° East  Level FlightAware Approximate
02:09AM 50.3174 -34.0272 73° East  Level FlightAware Approximate
02:10AM 50.3547 -33.8293 73° East  Level FlightAware Approximate
02:11AM 50.3916 -33.6310 74° East  Level FlightAware Approximate
02:12AM 50.4282 -33.4324 74° East  Level FlightAware Approximate
02:13AM 50.4645 -33.2335 74° East  Level FlightAware Approximate
02:14AM 50.5005 -33.0343 74° East  Level FlightAware Approximate
02:15AM 50.5361 -32.8348 74° East  Level FlightAware Approximate
02:16AM 50.5714 -32.6350 74° East  Level FlightAware Approximate
02:17AM 50.6063 -32.4349 75° East  Level FlightAware Approximate
02:18AM 50.6409 -32.2345 75° East  Level FlightAware Approximate
02:19AM 50.6751 -32.0339 75° East  Level FlightAware Approximate
02:20AM 50.7090 -31.8329 75° East  Level FlightAware Approximate
02:21AM 50.7425 -31.6316 75° East  Level FlightAware Approximate
02:22AM 50.7757 -31.4301 75° East  Level FlightAware Approximate
02:23AM 50.8086 -31.2282 75° East  Level FlightAware Approximate
02:24AM 50.8411 -31.0261 76° East  Level FlightAware Approximate
02:25AM 50.8732 -30.8237 76° East  Level FlightAware Approximate
02:26AM 50.9050 -30.6210 76° East  Level FlightAware Approximate
02:27AM 50.9365 -30.4181 76° East  Level FlightAware Approximate
02:28AM 50.9675 -30.2149 76° East  Level FlightAware Approximate
02:29AM 50.9983 -30.0114 76° East  Level FlightAware Approximate
02:30AM 51.0462 -29.8164 68° East  Level FlightAware Approximate
02:31AM 51.0949 -29.6216 68° East  Level FlightAware Approximate
02:32AM 51.1433 -29.4263 68° East  Level FlightAware Approximate
02:33AM 51.1913 -29.2307 69° East  Level FlightAware Approximate
02:34AM 51.2390 -29.0346 69° East  Level FlightAware Approximate
02:35AM 51.2863 -28.8381 69° East  Level FlightAware Approximate
02:36AM 51.3334 -28.6413 69° East  Level FlightAware Approximate
02:37AM 51.3801 -28.4440 69° East  Level FlightAware Approximate
02:38AM 51.4264 -28.2463 69° East  Level FlightAware Approximate
02:39AM 51.4725 -28.0482 69° East  Level FlightAware Approximate
02:40AM 51.5182 -27.8497 70° East  Level FlightAware Approximate
02:41AM 51.5635 -27.6509 70° East  Level FlightAware Approximate
02:42AM 51.6086 -27.4516 70° East  Level FlightAware Approximate
02:43AM 51.6533 -27.2519 70° East  Level FlightAware Approximate
02:44AM 51.6976 -27.0519 70° East  Level FlightAware Approximate
02:45AM 51.7416 -26.8514 70° East  Level FlightAware Approximate
02:46AM 51.7853 -26.6506 71° East  Level FlightAware Approximate
02:47AM 51.8286 -26.4494 71° East  Level FlightAware Approximate
02:48AM 51.8716 -26.2478 71° East  Level FlightAware Approximate
02:49AM 51.9142 -26.0458 71° East  Level FlightAware Approximate
02:50AM 51.9565 -25.8434 71° East  Level FlightAware Approximate
02:51AM 51.9985 -25.6406 71° East  Level FlightAware Approximate
02:52AM 52.0401 -25.4375 72° East  Level FlightAware Approximate
02:53AM 52.0813 -25.2340 72° East  Level FlightAware Approximate
02:54AM 52.1222 -25.0301 72° East  Level FlightAware Approximate
02:55AM 52.1628 -24.8258 72° East  Level FlightAware Approximate
02:56AM 52.2030 -24.6212 72° East  Level FlightAware Approximate
02:57AM 52.2428 -24.4162 72° East  Level FlightAware Approximate
02:58AM 52.2823 -24.2108 72° East  Level FlightAware Approximate
02:59AM 52.3214 -24.0051 73° East  Level FlightAware Approximate
03:00AM 52.3602 -23.7990 73° East  Level FlightAware Approximate
03:01AM 52.3986 -23.5926 73° East  Level FlightAware Approximate
03:02AM 52.4366 -23.3857 73° East  Level FlightAware Approximate
03:03AM 52.4743 -23.1786 73° East  Level FlightAware Approximate
03:04AM 52.5116 -22.9711 73° East  Level FlightAware Approximate
03:05AM 52.5486 -22.7632 74° East  Level FlightAware Approximate
03:06AM 52.5852 -22.5550 74° East  Level FlightAware Approximate
03:07AM 52.6214 -22.3464 74° East  Level FlightAware Approximate
03:08AM 52.6573 -22.1375 74° East  Level FlightAware Approximate
03:09AM 52.6928 -21.9282 74° East  Level FlightAware Approximate
03:10AM 52.7279 -21.7187 74° East  Level FlightAware Approximate
03:11AM 52.7626 -21.5087 75° East  Level FlightAware Approximate
03:12AM 52.7970 -21.2985 75° East  Level FlightAware Approximate
03:13AM 52.8310 -21.0879 75° East  Level FlightAware Approximate
03:14AM 52.8647 -20.8769 75° East  Level FlightAware Approximate
03:15AM 52.8979 -20.6657 75° East  Level FlightAware Approximate
03:16AM 52.9308 -20.4541 75° East  Level FlightAware Approximate
03:17AM 52.9633 -20.2423 76° East  Level FlightAware Approximate
03:18AM 52.9955 -20.0300 76° East  Level FlightAware Approximate
03:19AM 53.0163 -19.8140 82° East  Level FlightAware Approximate
03:20AM 53.0349 -19.5971 82° East  Level FlightAware Approximate
03:21AM 53.0530 -19.3801 82° East  Level FlightAware Approximate
03:22AM 53.0708 -19.1628 82° East  Level FlightAware Approximate
03:23AM 53.0882 -18.9454 82° East  Level FlightAware Approximate
03:24AM 53.1052 -18.7279 82° East  Level FlightAware Approximate
03:25AM 53.1218 -18.5101 83° East  Level FlightAware Approximate
03:26AM 53.1380 -18.2922 83° East  Level FlightAware Approximate
03:27AM 53.1538 -18.0741 83° East  Level FlightAware Approximate
03:28AM 53.1693 -17.8559 83° East  Level FlightAware Approximate
03:29AM 53.1843 -17.6375 83° East  Level FlightAware Approximate
03:30AM 53.1989 -17.4190 84° East  Level FlightAware Approximate
03:31AM 53.2131 -17.2003 84° East  Level FlightAware Approximate
03:32AM 53.2269 -16.9815 84° East  Level FlightAware Approximate
03:33AM 53.2403 -16.7625 84° East  Level FlightAware Approximate
03:34AM 53.2533 -16.5434 84° East  Level FlightAware Approximate
03:35AM 53.2659 -16.3242 84° East  Level FlightAware Approximate
03:36AM 53.2781 -16.1048 85° East  Level FlightAware Approximate
03:37AM 53.2899 -15.8853 85° East  Level FlightAware Approximate
03:38AM 53.3013 -15.6657 85° East  Level FlightAware Approximate
03:39AM 53.3123 -15.4460 85° East  Level FlightAware Approximate
03:40AM 53.3229 -15.2262 85° East  Level FlightAware Approximate
03:41AM 53.3330 -15.0062 85° East  Level FlightAware Approximate
03:42AM 53.3421 -14.7861 86° East  Level FlightAware Approximate
03:43AM 53.3508 -14.5659 86° East  Level FlightAware Approximate
03:44AM 53.3590 -14.3456 86° East  Level FlightAware Approximate
03:45AM 53.3668 -14.1252 87° East  Level FlightAware Approximate
03:46AM 53.3742 -13.9047 87° East  Level FlightAware Approximate
03:47AM 53.3813 -13.6842 87° East  Level FlightAware Approximate
03:48AM 53.3884 -13.4636 87° East  Level FlightAware Approximate
03:49AM 53.3952 -13.2430 87° East  Level FlightAware Approximate
03:50AM 53.4017 -13.0223 87° East  Level FlightAware Approximate
03:51AM 53.4078 -12.8015 87° East  Level FlightAware Approximate
03:52AM 53.4135 -12.5807 87° East  Level FlightAware Approximate
03:52AM 53.0818 -8.9796 87° East 464 534 31,600  Level FlightAware UK
03:52AM 53.0804 -8.8696 91° East 466 536 31,000 -1,200 Descending FlightAware UK
03:53AM 53.0793 -8.7589 91° East 468 539 30,400 -1,140 Descending FlightAware UK
03:55AM 53.0718 -8.2977 91° East 468 539 28,100 -1,200 Descending FlightAware UK
03:56AM 53.0699 -8.1881 92° East 470 541 27,400 -1,500 Descending FlightAware UK
03:56AM 53.0681 -8.0784 92° East 474 545 26,600 -1,440 Descending FlightAware UK
03:57AM 53.0659 -7.9683 92° East 472 543 26,000 -1,140 Descending FlightAware UK
03:57AM 53.0634 -7.8581 92° East 466 536 25,500 -1,020 Descending FlightAware UK
03:58AM 53.0609 -7.7491 92° East 464 534 25,000 -1,140 Descending FlightAware UK
03:58AM 53.0584 -7.6404 92° East 460 529 24,400 -1,140 Descending FlightAware UK
03:59AM 53.0554 -7.5118 92° East 456 525 23,800 -1,020 Descending FlightAware UK
03:59AM 53.0529 -7.4058 92° East 452 520 23,300 -1,140 Descending FlightAware UK
04:00AM 53.0503 -7.2996 92° East 448 516 22,700 -1,620 Descending FlightAware UK
04:00AM 53.0441 -7.1939 96° East 436 502 21,700 -2,220 Descending FlightAware UK
04:01AM 53.0364 -7.0925 97° East 426 490 20,500 -2,640 Descending FlightAware UK
04:01AM 53.0258 -6.9538 97° East 414 476 18,600 -2,700 Descending FlightAware UK
04:02AM 53.0166 -6.8369 97° East 410 472 17,000 -2,580 Descending FlightAware UK
04:02AM 53.0092 -6.7418 97° East 402 463 15,800 -2,520 Descending FlightAware UK
04:03AM 53.0117 -6.6853 86° East 400 460 15,000 -2,580 Descending FlightAware UK
04:03AM 53.0301 -6.6158 66° East 394 453 14,000 -2,100 Descending FlightAware UK
04:04AM 53.0831 -6.5197 47° Northeast 380 437 12,700 -2,340 Descending FlightAware UK
04:04AM 53.1292 -6.4394 46° Northeast 386 444 11,000 -2,100 Descending FlightAware UK
04:05AM 53.1555 -6.3854 51° Northeast 344 396 10,600 -720 Descending FlightAware UK
04:05AM 53.1675 -6.3115 75° East 300 345 10,400 -540 Descending FlightAware UK
04:06AM 53.1661 -6.2692 93° East 290 334 10,200 -1,020 Descending FlightAware UK
04:06AM 53.1649 -6.2269 93° East 288 331 9,800 -1,200 Descending FlightAware UK
04:06AM 53.1628 -6.1857 95° East 288 331 9,500 -1,200 Descending FlightAware UK
04:07AM 53.1603 -6.1441 96° East 286 329 9,100 -1,200 Descending FlightAware UK
04:07AM 53.1577 -6.1033 96° East 282 325 8,800 -1,200 Descending FlightAware UK
04:07AM 53.1553 -6.0630 96° East 280 322 8,400 -1,380 Descending FlightAware UK
04:07AM 53.1530 -6.0230 96° East 278 320 8,000 -1,020 Descending FlightAware UK
04:08AM 53.1508 -5.9830 95° East 274 315 7,800 -720 Descending FlightAware UK
04:08AM 53.1488 -5.9437 95° East 262 302 7,600 -780 Descending FlightAware UK
04:09AM 53.1517 -5.8787 86° East 1 1 7,200 -1,320 Descending FlightAware UK
04:09AM 53.1859 -5.8498 27° Northeast 254 292 6,300 -2,040 Descending FlightAware UK
04:10AM 53.2210 -5.8549 355° North 248 285 5,200 -2,040 Descending FlightAware UK
04:10AM 53.2406 -5.8638 345° North 248 285 4,700 -1,680 Descending FlightAware UK
04:12AM 53.3706 -6.1554 307° West  Level Estimated
04:19AM 53.4213 -6.2701 307° West  Level Estimated
04:20AM 53.4213 -6.2701 315° West  Level Estimated
04:21AM 53.4213 -6.2701 315° West  Level Estimated
04:22AM 53.4213 -6.2701 315° West  Level Estimated
04:23AM 53.4213 -6.2701 315° West  Level Estimated
04:24AM 53.4213 -6.2701 315° West  Level Estimated
04:25AM 53.4213 -6.2701 315° West  Level Estimated
04:26AM 53.4213 -6.2701 315° West  Level Estimated
04:27AM 53.4213 -6.2701 315° West  Level Estimated
04:28AM 53.4213 -6.2701 315° West  Level Estimated
04:29AM 53.4213 -6.2701 315° West  Level Estimated
04:30AM 53.4213 -6.2701 315° West  Level Estimated
04:31AM 53.4213 -6.2701 315° West  Level Estimated
04:32AM 53.4213 -6.2701 315° West  Level Estimated
04:33AM 53.4213 -6.2701 315° West  Level Estimated
04:34AM 53.4213 -6.2701 315° West  Level Estimated
04:35AM 53.4213 -6.2701 315° West  Level Estimated